Terminal Aerodrome Forecast
Issued by NWS Binghamton, NY

Home | Current Version | Previous Version | Text Only | Print | Product List | Glossary On
Versions: 1 2 3 4 5 6 7 8 9 10 11 12 13 14 15 16 17 18 19 20 21 22
000
FTUS41 KBGM 251937 AAA
TAFAVP
TAF AMD
KAVP 251937Z 2520/2618 17008KT 3SM -SHRA BKN012 OVC020
      WS020/21035KT
     FM252030 23008KT P6SM BKN025 BKN040
     FM252100 22006KT P6SM FEW030 SCT080
     FM260000 27005KT P6SM SCT250
     FM261600 29009G16KT P6SM FEW250=

USA.gov is the U.S. government's official web portal to all federal, state and local government web resources and services.